sensor_id;sensor_type;location;lat;lon;timestamp;P1;durP1;ratioP1;P2;durP2;ratioP2
16600;SDS011;34891;48.164;11.572;2023-04-08T00:02:58;13.73;;;6.53;;
16600;SDS011;34891;48.164;11.572;2023-04-08T00:08:03;14.90;;;6.40;;
16600;SDS011;34891;48.164;11.572;2023-04-08T00:18:08;9.30;;;4.15;;
16600;SDS011;34891;48.164;11.572;2023-04-08T00:23:12;4.90;;;3.13;;
16600;SDS011;34891;48.164;11.572;2023-04-08T00:28:15;13.35;;;6.13;;
16600;SDS011;34891;48.164;11.572;2023-04-08T00:33:17;14.35;;;6.20;;
16600;SDS011;34891;48.164;11.572;2023-04-08T00:38:21;16.20;;;5.22;;
16600;SDS011;34891;48.164;11.572;2023-04-08T00:43:24;12.95;;;5.93;;
16600;SDS011;34891;48.164;11.572;2023-04-08T00:48:28;4.82;;;2.45;;
16600;SDS011;34891;48.164;11.572;2023-04-08T00:58:35;14.52;;;5.35;;
16600;SDS011;34891;48.164;11.572;2023-04-08T01:03:41;10.50;;;4.63;;
16600;SDS011;34891;48.164;11.572;2023-04-08T01:08:44;7.05;;;2.88;;
16600;SDS011;34891;48.164;11.572;2023-04-08T01:13:48;8.13;;;3.53;;
16600;SDS011;34891;48.164;11.572;2023-04-08T01:19:05;8.00;;;2.90;;
16600;SDS011;34891;48.164;11.572;2023-04-08T01:24:11;11.00;;;4.65;;
16600;SDS011;34891;48.164;11.572;2023-04-08T01:29:16;9.65;;;4.40;;
16600;SDS011;34891;48.164;11.572;2023-04-08T01:34:19;6.07;;;3.10;;
16600;SDS011;34891;48.164;11.572;2023-04-08T01:39:23;10.60;;;5.17;;
16600;SDS011;34891;48.164;11.572;2023-04-08T01:44:28;10.77;;;4.38;;
16600;SDS011;34891;48.164;11.572;2023-04-08T01:49:33;6.53;;;2.88;;
16600;SDS011;34891;48.164;11.572;2023-04-08T01:54:35;10.73;;;4.47;;
16600;SDS011;34891;48.164;11.572;2023-04-08T01:59:39;6.65;;;3.25;;
16600;SDS011;34891;48.164;11.572;2023-04-08T02:04:43;11.23;;;5.25;;
16600;SDS011;34891;48.164;11.572;2023-04-08T02:09:45;8.00;;;3.05;;
16600;SDS011;34891;48.164;11.572;2023-04-08T02:14:49;8.60;;;3.88;;
16600;SDS011;34891;48.164;11.572;2023-04-08T02:20:02;12.40;;;4.93;;
16600;SDS011;34891;48.164;11.572;2023-04-08T02:25:07;8.40;;;4.35;;
16600;SDS011;34891;48.164;11.572;2023-04-08T02:30:13;11.93;;;4.32;;
16600;SDS011;34891;48.164;11.572;2023-04-08T02:35:17;7.03;;;2.55;;
16600;SDS011;34891;48.164;11.572;2023-04-08T02:40:24;8.00;;;3.67;;
16600;SDS011;34891;48.164;11.572;2023-04-08T02:45:30;8.43;;;3.63;;
16600;SDS011;34891;48.164;11.572;2023-04-08T02:50:33;12.68;;;4.95;;
16600;SDS011;34891;48.164;11.572;2023-04-08T02:55:36;9.00;;;3.10;;
16600;SDS011;34891;48.164;11.572;2023-04-08T03:00:41;10.23;;;3.85;;
16600;SDS011;34891;48.164;11.572;2023-04-08T03:05:44;7.93;;;3.88;;
16600;SDS011;34891;48.164;11.572;2023-04-08T03:10:48;7.65;;;3.63;;
16600;SDS011;34891;48.164;11.572;2023-04-08T03:15:52;11.63;;;5.00;;
16600;SDS011;34891;48.164;11.572;2023-04-08T03:20:56;9.52;;;4.05;;
16600;SDS011;34891;48.164;11.572;2023-04-08T03:25:59;9.80;;;4.60;;
16600;SDS011;34891;48.164;11.572;2023-04-08T03:31:03;10.60;;;4.05;;
16600;SDS011;34891;48.164;11.572;2023-04-08T03:36:06;10.63;;;4.90;;
16600;SDS011;34891;48.164;11.572;2023-04-08T03:41:11;7.90;;;3.75;;
16600;SDS011;34891;48.164;11.572;2023-04-08T03:46:15;11.02;;;5.38;;
16600;SDS011;34891;48.164;11.572;2023-04-08T03:51:17;10.27;;;4.65;;
16600;SDS011;34891;48.164;11.572;2023-04-08T03:56:20;18.37;;;5.73;;
16600;SDS011;34891;48.164;11.572;2023-04-08T04:01:25;13.53;;;6.20;;
16600;SDS011;34891;48.164;11.572;2023-04-08T04:06:28;11.90;;;5.70;;
16600;SDS011;34891;48.164;11.572;2023-04-08T04:11:32;12.23;;;5.38;;
16600;SDS011;34891;48.164;11.572;2023-04-08T04:16:37;15.68;;;6.35;;
16600;SDS011;34891;48.164;11.572;2023-04-08T04:21:39;11.68;;;5.38;;
16600;SDS011;34891;48.164;11.572;2023-04-08T04:26:43;10.10;;;3.93;;
16600;SDS011;34891;48.164;11.572;2023-04-08T04:31:46;13.57;;;6.97;;
16600;SDS011;34891;48.164;11.572;2023-04-08T04:36:50;16.98;;;6.72;;
16600;SDS011;34891;48.164;11.572;2023-04-08T04:41:53;15.65;;;6.10;;
16600;SDS011;34891;48.164;11.572;2023-04-08T04:46:57;17.00;;;7.25;;
16600;SDS011;34891;48.164;11.572;2023-04-08T04:52:00;16.65;;;5.43;;
16600;SDS011;34891;48.164;11.572;2023-04-08T04:57:03;10.80;;;4.28;;
16600;SDS011;34891;48.164;11.572;2023-04-08T05:02:08;20.65;;;7.10;;
16600;SDS011;34891;48.164;11.572;2023-04-08T05:07:11;11.25;;;4.53;;
16600;SDS011;34891;48.164;11.572;2023-04-08T05:12:15;19.53;;;8.30;;
16600;SDS011;34891;48.164;11.572;2023-04-08T05:17:19;10.75;;;4.60;;
16600;SDS011;34891;48.164;11.572;2023-04-08T05:22:22;20.00;;;7.53;;
16600;SDS011;34891;48.164;11.572;2023-04-08T05:27:24;17.83;;;7.68;;
16600;SDS011;34891;48.164;11.572;2023-04-08T05:32:29;10.18;;;4.25;;
16600;SDS011;34891;48.164;11.572;2023-04-08T05:37:34;17.33;;;7.25;;
16600;SDS011;34891;48.164;11.572;2023-04-08T05:42:37;15.40;;;5.65;;
16600;SDS011;34891;48.164;11.572;2023-04-08T05:47:41;14.32;;;6.00;;
16600;SDS011;34891;48.164;11.572;2023-04-08T05:52:44;22.15;;;7.43;;
16600;SDS011;34891;48.164;11.572;2023-04-08T05:57:47;19.90;;;7.17;;
16600;SDS011;34891;48.164;11.572;2023-04-08T06:03:01;18.40;;;7.43;;
16600;SDS011;34891;48.164;11.572;2023-04-08T06:08:05;18.38;;;6.90;;
16600;SDS011;34891;48.164;11.572;2023-04-08T06:13:08;19.07;;;7.80;;
16600;SDS011;34891;48.164;11.572;2023-04-08T06:18:12;19.10;;;8.50;;
16600;SDS011;34891;48.164;11.572;2023-04-08T06:23:15;22.13;;;9.23;;
16600;SDS011;34891;48.164;11.572;2023-04-08T06:28:18;17.35;;;8.40;;
16600;SDS011;34891;48.164;11.572;2023-04-08T06:33:23;19.70;;;8.47;;
16600;SDS011;34891;48.164;11.572;2023-04-08T06:38:25;19.70;;;8.52;;
16600;SDS011;34891;48.164;11.572;2023-04-08T06:43:28;18.70;;;8.30;;
16600;SDS011;34891;48.164;11.572;2023-04-08T06:48:32;21.23;;;9.52;;
16600;SDS011;34891;48.164;11.572;2023-04-08T06:53:35;19.77;;;6.97;;
16600;SDS011;34891;48.164;11.572;2023-04-08T06:58:37;23.30;;;10.05;;
16600;SDS011;34891;48.164;11.572;2023-04-08T07:03:41;19.00;;;9.05;;
16600;SDS011;34891;48.164;11.572;2023-04-08T07:08:45;20.17;;;9.48;;
16600;SDS011;34891;48.164;11.572;2023-04-08T07:13:47;19.25;;;9.48;;
16600;SDS011;34891;48.164;11.572;2023-04-08T07:18:51;22.15;;;9.23;;
16600;SDS011;34891;48.164;11.572;2023-04-08T07:23:54;18.73;;;8.35;;
16600;SDS011;34891;48.164;11.572;2023-04-08T07:28:58;20.95;;;8.63;;
16600;SDS011;34891;48.164;11.572;2023-04-08T07:34:02;19.23;;;9.20;;
16600;SDS011;34891;48.164;11.572;2023-04-08T07:39:05;17.23;;;9.07;;
16600;SDS011;34891;48.164;11.572;2023-04-08T07:44:08;15.90;;;8.02;;
16600;SDS011;34891;48.164;11.572;2023-04-08T07:49:12;16.50;;;8.13;;
16600;SDS011;34891;48.164;11.572;2023-04-08T07:54:15;18.35;;;8.70;;
16600;SDS011;34891;48.164;11.572;2023-04-08T07:59:18;21.95;;;9.55;;
16600;SDS011;34891;48.164;11.572;2023-04-08T08:04:22;18.45;;;8.55;;
16600;SDS011;34891;48.164;11.572;2023-04-08T08:09:27;15.52;;;7.57;;
16600;SDS011;34891;48.164;11.572;2023-04-08T08:14:33;17.75;;;8.38;;
16600;SDS011;34891;48.164;11.572;2023-04-08T08:19:37;17.58;;;7.85;;
16600;SDS011;34891;48.164;11.572;2023-04-08T08:24:39;19.50;;;7.82;;
16600;SDS011;34891;48.164;11.572;2023-04-08T08:29:43;11.35;;;5.68;;
16600;SDS011;34891;48.164;11.572;2023-04-08T08:34:47;14.43;;;7.15;;
16600;SDS011;34891;48.164;11.572;2023-04-08T08:39:51;18.27;;;8.45;;
16600;SDS011;34891;48.164;11.572;2023-04-08T08:44:54;16.08;;;8.80;;
16600;SDS011;34891;48.164;11.572;2023-04-08T08:49:59;18.57;;;7.87;;
16600;SDS011;34891;48.164;11.572;2023-04-08T08:55:01;19.88;;;8.43;;
16600;SDS011;34891;48.164;11.572;2023-04-08T09:00:29;17.80;;;8.70;;
16600;SDS011;34891;48.164;11.572;2023-04-08T09:05:38;18.42;;;8.45;;
16600;SDS011;34891;48.164;11.572;2023-04-08T09:10:48;16.07;;;7.27;;
16600;SDS011;34891;48.164;11.572;2023-04-08T09:16:00;16.10;;;7.63;;
16600;SDS011;34891;48.164;11.572;2023-04-08T09:21:06;15.05;;;7.30;;
16600;SDS011;34891;48.164;11.572;2023-04-08T09:26:10;14.43;;;6.47;;
16600;SDS011;34891;48.164;11.572;2023-04-08T09:31:19;16.60;;;6.93;;
16600;SDS011;34891;48.164;11.572;2023-04-08T09:36:24;12.55;;;6.22;;
16600;SDS011;34891;48.164;11.572;2023-04-08T09:41:38;14.90;;;6.65;;
16600;SDS011;34891;48.164;11.572;2023-04-08T09:46:45;18.70;;;7.45;;
16600;SDS011;34891;48.164;11.572;2023-04-08T09:51:53;12.63;;;6.70;;
16600;SDS011;34891;48.164;11.572;2023-04-08T09:57:03;13.98;;;7.15;;
16600;SDS011;34891;48.164;11.572;2023-04-08T10:02:08;13.05;;;5.80;;
16600;SDS011;34891;48.164;11.572;2023-04-08T10:07:15;10.27;;;5.57;;
16600;SDS011;34891;48.164;11.572;2023-04-08T10:17:23;15.48;;;7.50;;
16600;SDS011;34891;48.164;11.572;2023-04-08T10:22:46;15.57;;;7.80;;
16600;SDS011;34891;48.164;11.572;2023-04-08T10:27:50;15.13;;;7.97;;
16600;SDS011;34891;48.164;11.572;2023-04-08T10:32:52;17.05;;;8.55;;
16600;SDS011;34891;48.164;11.572;2023-04-08T10:37:59;22.75;;;9.18;;
16600;SDS011;34891;48.164;11.572;2023-04-08T10:43:02;21.35;;;9.32;;
16600;SDS011;34891;48.164;11.572;2023-04-08T10:48:12;16.48;;;8.32;;
16600;SDS011;34891;48.164;11.572;2023-04-08T10:53:22;18.52;;;9.50;;
16600;SDS011;34891;48.164;11.572;2023-04-08T10:58:25;17.80;;;9.00;;
16600;SDS011;34891;48.164;11.572;2023-04-08T11:03:30;18.92;;;9.02;;
16600;SDS011;34891;48.164;11.572;2023-04-08T11:08:35;20.15;;;9.38;;
16600;SDS011;34891;48.164;11.572;2023-04-08T11:13:38;21.45;;;10.25;;
16600;SDS011;34891;48.164;11.572;2023-04-08T11:18:52;17.67;;;9.13;;
16600;SDS011;34891;48.164;11.572;2023-04-08T11:23:57;18.23;;;7.55;;
16600;SDS011;34891;48.164;11.572;2023-04-08T11:28:59;19.00;;;9.65;;
16600;SDS011;34891;48.164;11.572;2023-04-08T11:39:08;20.42;;;10.05;;
16600;SDS011;34891;48.164;11.572;2023-04-08T11:44:11;19.67;;;9.63;;
16600;SDS011;34891;48.164;11.572;2023-04-08T11:49:14;19.95;;;9.82;;
16600;SDS011;34891;48.164;11.572;2023-04-08T11:54:25;17.35;;;8.70;;
16600;SDS011;34891;48.164;11.572;2023-04-08T11:59:29;17.48;;;7.93;;
16600;SDS011;34891;48.164;11.572;2023-04-08T12:04:32;19.00;;;8.65;;
16600;SDS011;34891;48.164;11.572;2023-04-08T12:09:36;14.52;;;7.57;;
16600;SDS011;34891;48.164;11.572;2023-04-08T12:14:39;15.48;;;7.65;;
16600;SDS011;34891;48.164;11.572;2023-04-08T12:19:41;15.45;;;8.00;;
16600;SDS011;34891;48.164;11.572;2023-04-08T12:24:46;13.07;;;6.97;;
16600;SDS011;34891;48.164;11.572;2023-04-08T12:29:50;19.48;;;8.40;;
16600;SDS011;34891;48.164;11.572;2023-04-08T12:34:56;16.67;;;8.30;;
16600;SDS011;34891;48.164;11.572;2023-04-08T12:40:01;18.95;;;7.45;;
16600;SDS011;34891;48.164;11.572;2023-04-08T12:45:04;25.60;;;10.82;;
16600;SDS011;34891;48.164;11.572;2023-04-08T12:50:07;15.85;;;8.05;;
16600;SDS011;34891;48.164;11.572;2023-04-08T12:55:12;14.32;;;7.85;;
16600;SDS011;34891;48.164;11.572;2023-04-08T13:00:15;14.48;;;7.15;;
16600;SDS011;34891;48.164;11.572;2023-04-08T13:05:18;14.82;;;7.75;;
16600;SDS011;34891;48.164;11.572;2023-04-08T13:10:42;16.63;;;8.35;;
16600;SDS011;34891;48.164;11.572;2023-04-08T13:15:45;14.30;;;7.15;;
16600;SDS011;34891;48.164;11.572;2023-04-08T13:20:48;13.35;;;7.28;;
16600;SDS011;34891;48.164;11.572;2023-04-08T13:25:52;14.48;;;6.75;;
16600;SDS011;34891;48.164;11.572;2023-04-08T13:35:57;13.50;;;7.07;;
16600;SDS011;34891;48.164;11.572;2023-04-08T13:41:01;14.68;;;6.80;;
16600;SDS011;34891;48.164;11.572;2023-04-08T13:46:04;12.05;;;6.13;;
16600;SDS011;34891;48.164;11.572;2023-04-08T13:51:07;14.57;;;7.00;;
16600;SDS011;34891;48.164;11.572;2023-04-08T13:56:12;13.13;;;6.40;;
16600;SDS011;34891;48.164;11.572;2023-04-08T14:01:25;12.07;;;6.00;;
16600;SDS011;34891;48.164;11.572;2023-04-08T14:06:29;14.88;;;6.68;;
16600;SDS011;34891;48.164;11.572;2023-04-08T14:11:33;15.77;;;7.43;;
16600;SDS011;34891;48.164;11.572;2023-04-08T14:16:39;12.65;;;6.15;;
16600;SDS011;34891;48.164;11.572;2023-04-08T14:21:42;12.60;;;6.13;;
16600;SDS011;34891;48.164;11.572;2023-04-08T14:26:47;14.13;;;6.93;;
16600;SDS011;34891;48.164;11.572;2023-04-08T14:31:51;12.93;;;6.47;;
16600;SDS011;34891;48.164;11.572;2023-04-08T14:36:54;14.05;;;6.60;;
16600;SDS011;34891;48.164;11.572;2023-04-08T14:41:59;16.17;;;7.77;;
16600;SDS011;34891;48.164;11.572;2023-04-08T14:47:02;14.07;;;6.53;;
16600;SDS011;34891;48.164;11.572;2023-04-08T14:52:04;12.48;;;6.32;;
16600;SDS011;34891;48.164;11.572;2023-04-08T14:57:08;12.82;;;6.13;;
16600;SDS011;34891;48.164;11.572;2023-04-08T15:02:11;15.52;;;6.25;;
16600;SDS011;34891;48.164;11.572;2023-04-08T15:07:14;13.70;;;6.68;;
16600;SDS011;34891;48.164;11.572;2023-04-08T15:12:19;15.85;;;7.10;;
16600;SDS011;34891;48.164;11.572;2023-04-08T15:22:26;14.57;;;7.18;;
16600;SDS011;34891;48.164;11.572;2023-04-08T15:27:30;18.02;;;8.07;;
16600;SDS011;34891;48.164;11.572;2023-04-08T15:32:33;19.08;;;8.63;;
16600;SDS011;34891;48.164;11.572;2023-04-08T15:37:35;27.73;;;11.10;;
16600;SDS011;34891;48.164;11.572;2023-04-08T15:42:49;15.30;;;7.82;;
16600;SDS011;34891;48.164;11.572;2023-04-08T15:47:53;19.55;;;8.48;;
16600;SDS011;34891;48.164;11.572;2023-04-08T15:52:56;19.97;;;9.00;;
16600;SDS011;34891;48.164;11.572;2023-04-08T15:58:00;19.75;;;8.52;;
16600;SDS011;34891;48.164;11.572;2023-04-08T16:03:03;19.77;;;8.77;;
16600;SDS011;34891;48.164;11.572;2023-04-08T16:08:09;21.60;;;9.68;;
16600;SDS011;34891;48.164;11.572;2023-04-08T16:13:13;20.73;;;8.77;;
16600;SDS011;34891;48.164;11.572;2023-04-08T16:23:18;18.05;;;8.77;;
16600;SDS011;34891;48.164;11.572;2023-04-08T16:28:24;18.57;;;9.13;;
16600;SDS011;34891;48.164;11.572;2023-04-08T16:33:29;19.58;;;9.00;;
16600;SDS011;34891;48.164;11.572;2023-04-08T16:38:34;19.13;;;8.60;;
16600;SDS011;34891;48.164;11.572;2023-04-08T16:43:38;17.90;;;8.18;;
16600;SDS011;34891;48.164;11.572;2023-04-08T16:48:41;22.48;;;8.88;;
16600;SDS011;34891;48.164;11.572;2023-04-08T16:53:45;22.00;;;8.77;;
16600;SDS011;34891;48.164;11.572;2023-04-08T16:58:49;18.67;;;8.23;;
16600;SDS011;34891;48.164;11.572;2023-04-08T17:03:53;20.00;;;8.55;;
16600;SDS011;34891;48.164;11.572;2023-04-08T17:08:57;16.10;;;7.57;;
16600;SDS011;34891;48.164;11.572;2023-04-08T17:14:01;19.25;;;7.32;;
16600;SDS011;34891;48.164;11.572;2023-04-08T17:19:05;18.73;;;7.88;;
16600;SDS011;34891;48.164;11.572;2023-04-08T17:24:08;16.70;;;7.87;;
16600;SDS011;34891;48.164;11.572;2023-04-08T17:29:13;18.17;;;8.38;;
16600;SDS011;34891;48.164;11.572;2023-04-08T17:34:15;18.55;;;7.35;;
16600;SDS011;34891;48.164;11.572;2023-04-08T17:39:18;16.35;;;7.60;;
16600;SDS011;34891;48.164;11.572;2023-04-08T17:44:23;18.83;;;8.35;;
16600;SDS011;34891;48.164;11.572;2023-04-08T17:49:29;17.88;;;7.63;;
16600;SDS011;34891;48.164;11.572;2023-04-08T17:54:33;17.30;;;7.87;;
16600;SDS011;34891;48.164;11.572;2023-04-08T17:59:37;27.73;;;13.05;;
16600;SDS011;34891;48.164;11.572;2023-04-08T18:04:42;21.92;;;7.78;;
16600;SDS011;34891;48.164;11.572;2023-04-08T18:09:46;20.50;;;8.32;;
16600;SDS011;34891;48.164;11.572;2023-04-08T18:14:50;17.45;;;7.25;;
16600;SDS011;34891;48.164;11.572;2023-04-08T18:19:56;18.65;;;7.63;;
16600;SDS011;34891;48.164;11.572;2023-04-08T18:25:00;18.42;;;8.07;;
16600;SDS011;34891;48.164;11.572;2023-04-08T18:30:04;19.08;;;8.20;;
16600;SDS011;34891;48.164;11.572;2023-04-08T18:35:08;17.35;;;7.50;;
16600;SDS011;34891;48.164;11.572;2023-04-08T18:40:11;20.02;;;8.50;;
16600;SDS011;34891;48.164;11.572;2023-04-08T18:45:16;21.43;;;8.87;;
16600;SDS011;34891;48.164;11.572;2023-04-08T18:55:21;20.38;;;8.45;;
16600;SDS011;34891;48.164;11.572;2023-04-08T19:00:26;20.97;;;8.10;;
16600;SDS011;34891;48.164;11.572;2023-04-08T19:05:39;21.65;;;8.85;;
16600;SDS011;34891;48.164;11.572;2023-04-08T19:10:42;22.30;;;8.77;;
16600;SDS011;34891;48.164;11.572;2023-04-08T19:15:46;23.52;;;9.35;;
16600;SDS011;34891;48.164;11.572;2023-04-08T19:20:49;21.25;;;8.75;;
16600;SDS011;34891;48.164;11.572;2023-04-08T19:25:52;25.65;;;9.88;;
16600;SDS011;34891;48.164;11.572;2023-04-08T19:30:56;24.83;;;8.97;;
16600;SDS011;34891;48.164;11.572;2023-04-08T19:36:00;19.73;;;8.38;;
16600;SDS011;34891;48.164;11.572;2023-04-08T19:41:03;20.58;;;8.85;;
16600;SDS011;34891;48.164;11.572;2023-04-08T19:46:07;21.48;;;8.98;;
16600;SDS011;34891;48.164;11.572;2023-04-08T19:51:13;21.25;;;9.57;;
16600;SDS011;34891;48.164;11.572;2023-04-08T19:56:16;23.08;;;9.98;;
16600;SDS011;34891;48.164;11.572;2023-04-08T20:01:31;22.15;;;9.55;;
16600;SDS011;34891;48.164;11.572;2023-04-08T20:06:36;21.20;;;9.70;;
16600;SDS011;34891;48.164;11.572;2023-04-08T20:11:39;21.27;;;8.47;;
16600;SDS011;34891;48.164;11.572;2023-04-08T20:16:48;19.77;;;8.68;;
16600;SDS011;34891;48.164;11.572;2023-04-08T20:21:51;20.92;;;8.68;;
16600;SDS011;34891;48.164;11.572;2023-04-08T20:26:54;19.08;;;9.60;;
16600;SDS011;34891;48.164;11.572;2023-04-08T20:31:59;20.20;;;9.40;;
16600;SDS011;34891;48.164;11.572;2023-04-08T20:37:02;20.27;;;8.95;;
16600;SDS011;34891;48.164;11.572;2023-04-08T20:42:05;23.87;;;10.53;;
16600;SDS011;34891;48.164;11.572;2023-04-08T20:47:11;21.23;;;10.77;;
16600;SDS011;34891;48.164;11.572;2023-04-08T20:52:14;22.80;;;10.57;;
16600;SDS011;34891;48.164;11.572;2023-04-08T20:57:18;21.50;;;10.75;;
16600;SDS011;34891;48.164;11.572;2023-04-08T21:02:24;25.52;;;11.00;;
16600;SDS011;34891;48.164;11.572;2023-04-08T21:07:28;22.38;;;10.52;;
16600;SDS011;34891;48.164;11.572;2023-04-08T21:12:32;22.73;;;10.07;;
16600;SDS011;34891;48.164;11.572;2023-04-08T21:17:37;25.43;;;9.70;;
16600;SDS011;34891;48.164;11.572;2023-04-08T21:22:40;22.08;;;9.95;;
16600;SDS011;34891;48.164;11.572;2023-04-08T21:27:43;23.63;;;9.57;;
16600;SDS011;34891;48.164;11.572;2023-04-08T21:32:47;22.70;;;8.32;;
16600;SDS011;34891;48.164;11.572;2023-04-08T21:42:52;13.88;;;5.45;;
16600;SDS011;34891;48.164;11.572;2023-04-08T21:47:57;11.10;;;4.93;;
16600;SDS011;34891;48.164;11.572;2023-04-08T21:53:01;12.60;;;4.22;;
16600;SDS011;34891;48.164;11.572;2023-04-08T21:58:14;10.15;;;3.92;;
16600;SDS011;34891;48.164;11.572;2023-04-08T22:03:18;9.53;;;4.20;;
16600;SDS011;34891;48.164;11.572;2023-04-08T22:08:22;12.05;;;4.35;;
16600;SDS011;34891;48.164;11.572;2023-04-08T22:13:26;11.45;;;4.53;;
16600;SDS011;34891;48.164;11.572;2023-04-08T22:18:32;10.23;;;4.13;;
16600;SDS011;34891;48.164;11.572;2023-04-08T22:28:37;9.55;;;4.20;;
16600;SDS011;34891;48.164;11.572;2023-04-08T22:33:43;10.02;;;4.25;;
16600;SDS011;34891;48.164;11.572;2023-04-08T22:38:46;10.85;;;4.38;;
16600;SDS011;34891;48.164;11.572;2023-04-08T22:43:49;13.00;;;5.80;;
16600;SDS011;34891;48.164;11.572;2023-04-08T22:48:53;13.77;;;6.43;;
16600;SDS011;34891;48.164;11.572;2023-04-08T22:53:56;12.13;;;5.50;;
16600;SDS011;34891;48.164;11.572;2023-04-08T22:58:59;14.60;;;5.63;;
16600;SDS011;34891;48.164;11.572;2023-04-08T23:04:03;14.90;;;6.03;;
16600;SDS011;34891;48.164;11.572;2023-04-08T23:09:15;17.30;;;7.15;;
16600;SDS011;34891;48.164;11.572;2023-04-08T23:14:19;15.93;;;6.30;;
16600;SDS011;34891;48.164;11.572;2023-04-08T23:19:23;18.52;;;7.72;;
16600;SDS011;34891;48.164;11.572;2023-04-08T23:24:26;17.42;;;6.45;;
16600;SDS011;34891;48.164;11.572;2023-04-08T23:29:28;17.70;;;7.00;;
16600;SDS011;34891;48.164;11.572;2023-04-08T23:34:35;18.73;;;7.57;;
16600;SDS011;34891;48.164;11.572;2023-04-08T23:39:38;19.48;;;8.57;;
16600;SDS011;34891;48.164;11.572;2023-04-08T23:44:40;16.02;;;6.68;;
16600;SDS011;34891;48.164;11.572;2023-04-08T23:49:44;12.00;;;4.80;;
16600;SDS011;34891;48.164;11.572;2023-04-08T23:59:52;11.73;;;4.85;;
